Time;durP1;ratioP1;P1;durP2;ratioP2;P2;SDS_P1;SDS_P2;PMS_P1;PMS_P2;Temp;Humidity;BMP_temperature;BMP_pressure;BME280_temperature;BME280_humidity;BME280_pressure;Samples;Min_cycle;Max_cycle;Signal;HPM_P1;HPM_P2
2023/03/25 00:00:15;;;;;;;8.73;0.88;;;;;;;8.77;66.37;98088.59;4969477;28;20587;-47
2023/03/25 00:02:43;;;;;;;4.38;2.17;;;;;;;8.80;67.03;98104.00;4959370;28;20039;-47
2023/03/25 00:05:13;;;;;;;3.97;2.60;;;;;;;8.81;66.24;98096.22;4967173;28;20046;-50
2023/03/25 00:07:41;;;;;;;9.10;2.72;;;;;;;8.80;66.72;98096.25;4967737;28;20051;-47
2023/03/25 00:10:09;;;;;;;5.20;1.88;;;;;;;8.74;66.91;98095.53;4963276;28;20503;-49
2023/03/25 00:12:36;;;;;;;10.48;2.00;;;;;;;8.74;66.44;98105.84;4965606;28;20047;-48
2023/03/25 00:15:03;;;;;;;10.40;3.58;;;;;;;8.73;66.72;98104.19;4966990;28;20043;-48
2023/03/25 00:17:30;;;;;;;7.88;2.08;;;;;;;8.76;66.43;98107.53;4965568;28;20050;-47
2023/03/25 00:19:59;;;;;;;5.28;2.50;;;;;;;8.76;66.23;98112.72;4968865;28;20051;-51
2023/03/25 00:22:26;;;;;;;5.65;1.90;;;;;;;8.77;66.29;98104.06;4962696;28;20054;-47
2023/03/25 00:24:52;;;;;;;5.72;3.00;;;;;;;8.74;66.43;98121.34;4964799;28;20075;-49
2023/03/25 00:27:19;;;;;;;7.55;2.97;;;;;;;8.80;66.78;98120.34;4969378;28;20053;-47
2023/03/25 00:29:46;;;;;;;8.10;2.40;;;;;;;8.78;66.56;98121.28;4963609;28;20141;-49
2023/03/25 00:32:14;;;;;;;5.57;2.67;;;;;;;8.79;66.49;98117.78;4961712;28;20074;-49
2023/03/25 00:34:45;;;;;;;3.95;2.22;;;;;;;8.79;66.30;98117.78;4961136;28;20047;-47
2023/03/25 00:37:20;;;;;;;8.60;2.28;;;;;;;8.79;66.79;98113.50;4969520;28;20510;-47
2023/03/25 00:39:47;;;;;;;14.88;2.85;;;;;;;8.82;66.60;98117.72;4968706;28;20050;-49
2023/03/25 00:42:15;;;;;;;18.75;2.88;;;;;;;8.81;66.55;98121.19;4966856;28;20061;-50
2023/03/25 00:44:42;;;;;;;8.35;2.45;;;;;;;8.80;66.73;98111.72;4964894;28;20053;-47
2023/03/25 00:47:10;;;;;;;7.05;2.83;;;;;;;8.80;66.42;98101.41;4962153;28;20043;-48
2023/03/25 00:49:37;;;;;;;10.27;2.50;;;;;;;8.79;66.56;98110.06;4965301;28;20438;-48
2023/03/25 00:52:04;;;;;;;4.93;2.25;;;;;;;8.77;66.74;98106.66;4965981;28;20063;-47
2023/03/25 00:54:32;;;;;;;8.13;2.67;;;;;;;8.71;66.19;98112.81;4971242;28;20145;-48
2023/03/25 00:56:59;;;;;;;8.38;2.55;;;;;;;8.67;66.57;98113.78;4966884;28;20082;-48
2023/03/25 00:59:26;;;;;;;4.88;2.25;;;;;;;8.61;67.09;98119.97;4967861;28;20047;-48
2023/03/25 01:01:55;;;;;;;8.18;2.00;;;;;;;8.55;67.20;98114.97;4970281;28;20129;-51
2023/03/25 01:04:21;;;;;;;5.40;2.22;;;;;;;8.51;67.01;98113.31;4969482;28;20053;-48
2023/03/25 01:06:50;;;;;;;6.57;1.02;;;;;;;8.48;67.18;98109.94;4969251;28;20466;-49
2023/03/25 01:09:18;;;;;;;8.35;2.25;;;;;;;8.45;67.22;98125.47;4966982;28;20097;-49
2023/03/25 01:11:47;;;;;;;5.22;2.25;;;;;;;8.40;67.69;98117.00;4968766;28;20051;-47
2023/03/25 01:14:16;;;;;;;6.85;2.50;;;;;;;8.39;67.47;98125.66;4966911;28;20042;-51
2023/03/25 01:16:44;;;;;;;6.22;1.55;;;;;;;8.37;68.07;98114.50;4966593;28;20066;-48
2023/03/25 01:19:12;;;;;;;5.93;2.67;;;;;;;8.35;67.29;98108.56;4963698;28;20066;-47
2023/03/25 01:21:39;;;;;;;5.78;2.10;;;;;;;8.30;68.17;98106.06;4963860;28;20055;-47
2023/03/25 01:24:07;;;;;;;9.15;2.28;;;;;;;8.28;68.46;98112.16;4964606;28;20050;-47
2023/03/25 01:26:34;;;;;;;5.13;2.00;;;;;;;8.26;67.98;98119.09;4966627;28;20094;-49
2023/03/25 01:29:01;;;;;;;6.57;2.60;;;;;;;8.23;67.84;98126.03;4967931;28;20051;-47
2023/03/25 01:31:29;;;;;;;8.55;2.47;;;;;;;8.25;68.03;98117.38;4966010;28;20082;-51
2023/03/25 01:33:57;;;;;;;6.50;2.22;;;;;;;8.30;68.20;98125.84;4965733;28;20051;-47
2023/03/25 01:36:28;;;;;;;5.05;2.15;;;;;;;8.31;68.88;98128.41;4965252;28;20055;-49
2023/03/25 01:38:57;;;;;;;6.47;1.67;;;;;;;8.31;68.86;98137.88;4960343;28;20063;-51
2023/03/25 01:41:27;;;;;;;5.15;3.58;;;;;;;8.35;69.04;98131.78;4965403;28;20145;-48
2023/03/25 01:46:44;;;;;;;8.15;1.05;;;;;;;8.41;68.76;98133.34;5055814;28;20745;-49
2023/03/25 01:49:17;;;;;;;4.40;0.63;;;;;;;8.42;68.74;98125.56;5043547;28;20131;-48
2023/03/25 01:51:45;;;;;;;3.83;0.57;;;;;;;8.45;68.16;98125.47;5039007;28;20052;-49
2023/03/25 01:54:16;;;;;;;7.18;1.52;;;;;;;8.37;69.43;98132.56;5042336;28;20107;-47
2023/03/25 01:56:46;;;;;;;4.85;1.15;;;;;;;8.45;68.51;98130.63;5038531;28;20053;-48
2023/03/25 01:59:17;;;;;;;7.75;0.90;;;;;;;8.47;68.83;98128.88;5041861;28;20049;-48
2023/03/25 02:01:45;;;;;;;6.25;0.63;;;;;;;8.43;68.37;98129.84;5043005;28;20098;-48
2023/03/25 02:04:21;;;;;;;4.40;0.85;;;;;;;8.44;68.42;98133.28;5040766;28;20049;-48
2023/03/25 02:06:52;;;;;;;7.05;1.15;;;;;;;8.41;69.10;98129.03;5041282;28;20128;-48
2023/03/25 02:09:23;;;;;;;4.97;0.57;;;;;;;8.41;68.54;98123.03;5040638;28;20049;-50
2023/03/25 02:11:53;;;;;;;4.18;1.20;;;;;;;8.40;69.33;98131.63;5038565;28;20042;-48
2023/03/25 02:14:23;;;;;;;6.53;0.80;;;;;;;8.40;68.67;98117.00;5041112;28;20048;-48
2023/03/25 02:28:13;;;;;;;8.13;1.10;;;;;;;8.53;69.11;98132.19;5021779;27;20417;-49
2023/03/25 02:30:55;;;;;;;6.93;0.82;;;;;;;8.52;68.79;98130.50;5001895;28;20794;-47
2023/03/25 02:36:41;;;;;;;6.80;2.10;;;;;;;8.46;68.62;98136.66;5031530;27;20399;-48
2023/03/25 02:39:17;;;;;;;4.65;2.10;;;;;;;8.45;69.67;98134.97;5021480;28;20497;-47
2023/03/25 02:41:54;;;;;;;5.65;1.88;;;;;;;8.41;68.43;98129.03;5021020;28;20049;-48
2023/03/25 02:44:35;;;;;;;7.43;2.20;;;;;;;8.38;69.46;98131.69;5023731;28;20075;-50
2023/03/25 02:47:06;;;;;;;3.08;1.55;;;;;;;8.40;69.49;98135.06;5045042;28;20057;-47
2023/03/25 02:49:38;;;;;;;6.28;1.60;;;;;;;8.38;68.97;98143.75;5024435;28;20046;-49
2023/03/25 02:54:50;;;;;;;8.05;1.58;;;;;;;8.74;68.99;98141.13;5080678;27;20401;-48
2023/03/25 02:57:20;;;;;;;10.05;1.40;;;;;;;8.46;69.65;98134.94;5064379;28;20087;-48
2023/03/25 02:59:52;;;;;;;5.88;0.88;;;;;;;8.39;69.24;98146.28;5064640;28;20049;-49
2023/03/25 03:02:20;;;;;;;6.25;0.98;;;;;;;8.35;69.90;98165.31;5063992;28;20122;-47
2023/03/25 03:04:50;;;;;;;4.63;0.88;;;;;;;8.31;69.13;98163.69;5060248;28;20132;-47
2023/03/25 03:10:21;;;;;;;3.63;0.50;;;;;;;8.21;69.39;98142.41;5076382;27;20406;-48
2023/03/25 03:15:49;;;;;;;4.68;0.82;;;;;;;8.19;69.65;98145.03;5019052;27;20414;-49
2023/03/25 03:18:33;;;;;;;8.93;1.02;;;;;;;8.16;69.04;98155.41;5021093;28;20065;-49
2023/03/25 03:21:07;;;;;;;;;;;;;;;8.02;70.15;98144.56;5017488;28;20657;-47
2023/03/25 03:24:04;;;;;;;2.75;1.13;;;;;;;8.04;69.50;98155.72;5026318;28;19994;-48
2023/03/25 03:26:46;;;;;;;2.45;0.77;;;;;;;8.04;70.46;98150.56;5000953;28;20074;-48
2023/03/25 03:29:21;;;;;;;4.07;0.80;;;;;;;8.03;69.30;98148.84;4995106;28;20038;-48
2023/03/25 03:31:57;;;;;;;5.22;0.80;;;;;;;8.00;69.10;98159.25;4996291;28;20074;-48
2023/03/25 03:37:13;;;;;;;5.60;2.03;;;;;;;7.98;69.33;98172.16;5048127;28;21115;-48
2023/03/25 03:39:42;;;;;;;4.18;1.90;;;;;;;7.92;70.41;98178.31;4979994;28;20502;-47
2023/03/25 03:42:19;;;;;;;2.47;0.57;;;;;;;7.92;70.27;98178.31;4981512;28;20644;-49
2023/03/25 03:44:52;;;;;;;6.53;1.85;;;;;;;7.96;69.46;98179.94;4981380;28;20149;-46
2023/03/25 03:47:26;;;;;;;4.15;1.70;;;;;;;7.93;69.29;98182.56;4971578;28;20085;-48
2023/03/25 03:49:58;;;;;;;4.53;2.03;;;;;;;7.94;69.52;98192.00;4975471;28;20140;-47
2023/03/25 03:52:36;;;;;;;4.65;1.55;;;;;;;7.93;69.88;98190.31;4985153;28;20077;-46
2023/03/25 03:55:09;;;;;;;3.42;1.88;;;;;;;7.92;70.39;98193.78;4983831;28;20093;-46
2023/03/25 03:57:43;;;;;;;3.30;1.75;;;;;;;7.93;70.35;98185.16;4979282;28;20050;-47
2023/03/25 04:00:16;;;;;;;2.83;1.85;;;;;;;7.92;70.88;98196.34;4980329;28;20050;-48
2023/03/25 04:05:22;;;;;;;5.20;0.88;;;;;;;7.90;70.03;98185.22;5048566;27;20398;-49
2023/03/25 04:07:55;;;;;;;1.45;0.43;;;;;;;7.93;69.29;98189.44;5020012;28;20062;-48
2023/03/25 04:10:38;;;;;;;2.72;0.50;;;;;;;7.91;69.64;98181.75;5013730;28;20060;-49
2023/03/25 04:13:10;;;;;;;4.15;0.82;;;;;;;7.92;70.04;98193.78;5013817;28;20493;-49
2023/03/25 04:15:37;;;;;;;3.78;0.55;;;;;;;7.89;69.67;98201.56;5035407;28;20560;-47
2023/03/25 04:18:03;;;;;;;1.95;0.30;;;;;;;7.88;69.76;98202.44;5033382;28;20045;-49
2023/03/25 04:20:33;;;;;;;1.63;0.40;;;;;;;7.88;69.60;98197.28;5035205;28;20136;-48
2023/03/25 04:23:00;;;;;;;1.55;0.63;;;;;;;7.88;69.52;98199.00;5034428;28;20157;-49
2023/03/25 04:25:28;;;;;;;1.52;0.40;;;;;;;7.91;70.17;98202.38;5025196;28;20084;-50
2023/03/25 04:27:57;;;;;;;2.65;0.85;;;;;;;7.93;69.63;98215.22;5022997;28;20099;-50
2023/03/25 04:30:27;;;;;;;3.55;0.45;;;;;;;7.93;70.07;98210.94;5025135;28;20829;-48
2023/03/25 04:32:54;;;;;;;2.25;0.43;;;;;;;7.93;69.68;98216.09;5020542;28;20069;-48
2023/03/25 04:35:21;;;;;;;4.50;0.55;;;;;;;8.00;70.10;98221.13;5015988;28;20060;-50
2023/03/25 04:37:48;;;;;;;7.18;0.63;;;;;;;8.05;69.50;98224.44;5018329;28;20042;-48
2023/03/25 04:40:17;;;;;;;3.05;0.93;;;;;;;8.08;69.77;98221.78;5022570;28;20049;-50
2023/03/25 04:42:45;;;;;;;3.60;0.43;;;;;;;8.13;69.02;98227.69;5027014;28;20056;-50
2023/03/25 04:45:15;;;;;;;3.72;0.73;;;;;;;8.17;69.22;98233.66;5019303;28;20049;-50
2023/03/25 04:47:46;;;;;;;2.28;0.68;;;;;;;8.19;69.63;98232.72;5019288;28;20096;-51
2023/03/25 04:50:29;;;;;;;1.42;0.55;;;;;;;8.22;69.65;98236.97;5017787;28;20084;-47
2023/03/25 04:52:57;;;;;;;1.30;0.68;;;;;;;8.28;68.97;98257.44;5018686;28;20095;-48
2023/03/25 04:55:24;;;;;;;3.35;1.00;;;;;;;8.30;69.46;98239.34;5021556;28;20088;-47
2023/03/25 04:57:53;;;;;;;1.00;0.55;;;;;;;8.33;68.44;98249.59;5022944;28;20073;-49
2023/03/25 05:00:23;;;;;;;1.33;0.13;;;;;;;8.37;69.07;98243.50;5020410;28;20800;-48
2023/03/25 05:02:53;;;;;;;4.50;0.75;;;;;;;8.40;68.48;98246.00;5021460;28;20042;-48
2023/03/25 05:05:21;;;;;;;;;;;;;;;8.34;69.21;98247.00;5018244;28;20071;-48
2023/03/25 05:07:50;;;;;;;3.03;0.52;;;;;;;8.39;68.69;98244.31;5020247;28;19972;-51
2023/03/25 05:10:19;;;;;;;2.15;0.30;;;;;;;8.42;68.48;98244.25;5017308;28;20061;-48
2023/03/25 05:12:46;;;;;;;0.50;0.30;;;;;;;8.42;68.64;98254.56;5016466;28;20104;-50
2023/03/25 05:15:15;;;;;;;2.75;0.30;;;;;;;8.43;68.19;98253.69;5015931;28;20042;-48
2023/03/25 05:17:43;;;;;;;3.67;0.98;;;;;;;8.45;69.04;98246.75;5007692;28;20041;-48
2023/03/25 05:20:10;;;;;;;4.68;0.40;;;;;;;8.40;68.27;98251.16;5007103;28;20088;-48
2023/03/25 05:22:38;;;;;;;3.60;0.43;;;;;;;8.35;68.78;98255.59;4989606;28;20506;-48
2023/03/25 05:25:06;;;;;;;1.92;0.52;;;;;;;8.31;69.04;98257.38;5007492;28;20679;-49
2023/03/25 05:27:34;;;;;;;2.25;0.85;;;;;;;8.29;68.43;98266.03;5005264;28;20046;-48
2023/03/25 05:30:01;;;;;;;2.85;0.47;;;;;;;8.23;68.92;98274.75;5002513;28;20045;-48
2023/03/25 05:32:28;;;;;;;2.53;0.50;;;;;;;8.23;68.59;98277.34;5006221;28;20070;-48
2023/03/25 05:34:56;;;;;;;2.08;0.45;;;;;;;8.21;69.16;98287.69;5002738;28;20042;-49
2023/03/25 05:37:23;;;;;;;4.20;0.77;;;;;;;8.24;69.58;98281.59;5006365;28;20124;-48
2023/03/25 05:39:50;;;;;;;2.35;0.57;;;;;;;8.27;69.17;98280.72;5005131;28;20100;-47
2023/03/25 05:42:21;;;;;;;4.53;0.73;;;;;;;8.29;69.35;98284.94;5007891;28;20057;-49
2023/03/25 05:44:50;;;;;;;5.93;0.60;;;;;;;8.26;69.65;98281.56;5002807;28;20100;-48
2023/03/25 05:47:20;;;;;;;3.28;0.20;;;;;;;8.20;69.45;98286.00;5005347;28;20081;-48
2023/03/25 05:49:48;;;;;;;;;;;;;;;8.13;70.37;98283.56;5010052;28;20413;-47
2023/03/25 05:52:16;;;;;;;0.85;0.55;;;;;;;8.17;70.28;98290.38;5006646;28;19976;-48
2023/03/25 05:54:44;;;;;;;1.35;0.43;;;;;;;8.21;68.85;98295.41;5006728;28;20150;-48
2023/03/25 05:57:12;;;;;;;2.90;0.47;;;;;;;8.18;69.56;98292.91;5007051;28;20085;-47
2023/03/25 05:59:39;;;;;;;4.82;0.50;;;;;;;8.17;69.54;98300.69;5004027;28;20107;-49
2023/03/25 06:02:11;;;;;;;2.67;0.70;;;;;;;8.18;69.94;98307.53;5006668;28;20104;-48
2023/03/25 06:04:40;;;;;;;2.80;0.47;;;;;;;8.16;69.80;98305.00;5006102;28;20046;-48
2023/03/25 06:07:12;;;;;;;2.67;0.45;;;;;;;8.18;69.13;98303.22;5001929;28;20056;-48
2023/03/25 06:09:45;;;;;;;1.08;0.35;;;;;;;8.22;70.22;98304.88;5002826;28;20058;-49
2023/03/25 06:12:15;;;;;;;0.50;0.20;;;;;;;8.20;69.50;98287.72;5006252;28;20050;-48
2023/03/25 06:14:44;;;;;;;2.35;0.40;;;;;;;8.17;70.24;98306.69;5002762;28;20524;-48
2023/03/25 06:17:12;;;;;;;4.90;0.60;;;;;;;8.22;69.83;98316.91;5004032;28;20042;-48
2023/03/25 06:19:38;;;;;;;2.97;0.43;;;;;;;8.27;69.79;98321.97;5003110;28;20054;-49
2023/03/25 06:22:08;;;;;;;3.88;0.70;;;;;;;8.27;69.27;98316.81;5003715;28;20045;-49
2023/03/25 06:24:36;;;;;;;3.90;1.05;;;;;;;8.23;69.48;98324.63;5003411;28;20050;-49
2023/03/25 06:27:06;;;;;;;2.17;0.43;;;;;;;8.27;70.60;98332.28;5002133;28;20074;-47
2023/03/25 06:29:36;;;;;;;3.95;0.50;;;;;;;8.31;69.88;98326.19;5000821;28;20394;-49
2023/03/25 06:32:03;;;;;;;2.60;0.50;;;;;;;8.29;70.81;98338.25;5005012;28;20053;-49
2023/03/25 06:34:31;;;;;;;9.65;4.38;;;;;;;8.28;70.51;98339.16;5003703;28;20087;-49
2023/03/25 06:36:59;;;;;;;49.70;20.35;;;;;;;8.33;69.57;98337.31;5003691;28;20049;-48
2023/03/25 06:39:29;;;;;;;11.93;3.78;;;;;;;8.34;69.88;98344.16;5005808;28;20467;-50
2023/03/25 06:41:59;;;;;;;6.43;3.40;;;;;;;8.35;70.36;98349.28;5007081;28;20068;-49
2023/03/25 06:44:26;;;;;;;5.15;2.17;;;;;;;8.45;69.56;98357.69;5001046;28;20573;-48
2023/03/25 06:46:52;;;;;;;3.03;0.65;;;;;;;8.47;70.35;98361.09;5006775;28;20069;-48
2023/03/25 06:49:19;;;;;;;3.10;0.85;;;;;;;8.58;70.29;98366.03;5006260;28;20046;-48
2023/03/25 06:51:46;;;;;;;2.92;0.63;;;;;;;8.63;70.03;98368.53;5003528;28;20061;-47
2023/03/25 06:54:14;;;;;;;4.22;0.50;;;;;;;8.64;70.06;98362.47;5005566;28;20469;-48
2023/03/25 06:56:40;;;;;;;4.97;0.68;;;;;;;8.67;69.82;98375.31;5005480;28;20411;-47
2023/03/25 06:59:07;;;;;;;4.07;0.70;;;;;;;8.72;69.31;98360.56;5006527;28;20046;-48
2023/03/25 07:01:33;;;;;;;4.40;0.63;;;;;;;8.79;69.72;98370.78;5004436;28;20058;-49
2023/03/25 07:04:00;;;;;;;7.75;0.77;;;;;;;8.83;69.62;98382.72;5003061;28;20654;-48
2023/03/25 07:06:27;;;;;;;3.60;0.68;;;;;;;8.82;70.00;98381.88;5001933;28;20510;-49
2023/03/25 07:08:53;;;;;;;3.40;1.02;;;;;;;8.78;69.49;98395.72;5005340;28;20054;-49
2023/03/25 07:11:26;;;;;;;4.63;0.60;;;;;;;8.83;69.87;98393.91;5003806;28;20076;-48
2023/03/25 07:13:52;;;;;;;5.10;0.80;;;;;;;8.93;69.36;98415.22;5004296;28;20129;-47
2023/03/25 07:16:20;;;;;;;3.08;0.77;;;;;;;9.04;69.42;98411.50;5001977;28;20061;-51
2023/03/25 07:18:49;;;;;;;5.10;1.00;;;;;;;9.11;69.38;98415.66;5003506;28;20050;-47
2023/03/25 07:21:16;;;;;;;2.65;0.90;;;;;;;9.15;69.00;98422.44;4997346;28;20099;-47
2023/03/25 07:23:42;;;;;;;0.88;0.45;;;;;;;9.49;69.36;98419.06;5002724;28;20069;-48
2023/03/25 07:26:09;;;;;;;5.60;1.02;;;;;;;10.46;68.18;98436.44;5001941;28;20049;-50
2023/03/25 07:28:36;;;;;;;2.50;1.17;;;;;;;11.10;65.88;98437.16;5005233;28;20045;-52
2023/03/25 07:31:06;;;;;;;4.82;1.15;;;;;;;11.62;66.12;98444.19;5005553;28;20070;-48
2023/03/25 07:33:33;;;;;;;6.15;1.13;;;;;;;12.46;64.03;98451.72;5004118;28;20057;-49
2023/03/25 07:35:59;;;;;;;3.28;0.68;;;;;;;12.86;63.00;98452.00;4998723;28;20050;-47
2023/03/25 07:38:26;;;;;;;3.60;0.85;;;;;;;13.07;62.11;98450.34;5002851;28;20054;-49
2023/03/25 07:40:53;;;;;;;4.32;0.75;;;;;;;13.05;61.49;98456.50;5001733;28;20068;-48
2023/03/25 07:43:20;;;;;;;1.77;0.40;;;;;;;13.00;60.43;98443.69;4995302;28;20069;-48
2023/03/25 07:45:47;;;;;;;1.70;0.68;;;;;;;13.28;61.26;98449.56;4994657;28;20054;-48
2023/03/25 07:48:15;;;;;;;3.88;0.85;;;;;;;13.44;60.79;98466.25;4995012;28;20568;-48
2023/03/25 07:50:42;;;;;;;1.77;0.63;;;;;;;13.66;59.67;98468.00;4993497;28;20127;-48
2023/03/25 07:53:09;;;;;;;1.15;0.50;;;;;;;13.79;59.12;98473.56;4996693;28;20058;-49
2023/03/25 07:55:36;;;;;;;3.38;0.50;;;;;;;13.86;58.24;98488.00;4990273;28;20049;-50
2023/03/25 07:58:03;;;;;;;0.90;0.35;;;;;;;13.98;57.43;98486.63;4998761;28;20175;-49
2023/03/25 08:00:30;;;;;;;2.38;0.52;;;;;;;13.78;57.96;98497.88;4996704;28;20065;-48
2023/03/25 08:02:56;;;;;;;1.92;0.70;;;;;;;13.53;58.26;98501.47;5023823;28;20113;-49
2023/03/25 08:05:23;;;;;;;1.73;0.45;;;;;;;13.17;57.69;98500.22;4998576;28;20046;-49
2023/03/25 08:07:51;;;;;;;0.80;0.40;;;;;;;12.84;59.04;98513.59;4996383;28;20096;-49
2023/03/25 08:10:18;;;;;;;2.25;0.52;;;;;;;12.62;58.63;98529.09;4996837;28;20050;-49
2023/03/25 08:12:45;;;;;;;4.85;2.08;;;;;;;12.60;60.00;98536.97;4996363;28;20057;-49
2023/03/25 08:15:12;;;;;;;6.88;1.80;;;;;;;12.45;60.41;98538.31;4997112;28;20121;-48
2023/03/25 08:17:39;;;;;;;8.70;1.63;;;;;;;12.37;60.16;98542.94;5002899;28;20054;-47
2023/03/25 08:20:07;;;;;;;2.25;0.82;;;;;;;12.28;60.62;98542.34;5004557;28;20129;-47
2023/03/25 08:22:35;;;;;;;1.42;0.63;;;;;;;12.26;59.45;98559.72;5002725;28;20071;-49
2023/03/25 08:25:01;;;;;;;4.07;0.90;;;;;;;12.26;59.64;98564.91;5001181;28;20053;-50
2023/03/25 08:27:28;;;;;;;2.33;1.10;;;;;;;12.31;60.08;98568.22;5001163;28;20057;-51
2023/03/25 08:29:56;;;;;;;2.47;0.63;;;;;;;12.26;60.04;98577.88;5001954;28;20593;-48
2023/03/25 08:32:23;;;;;;;2.83;0.90;;;;;;;12.52;59.94;98575.31;5004234;28;20062;-47
2023/03/25 08:34:50;;;;;;;3.47;0.40;;;;;;;12.78;59.18;98579.59;5003194;28;20147;-48
2023/03/25 08:37:17;;;;;;;3.00;0.70;;;;;;;12.79;58.60;98583.91;5001213;28;20108;-47
2023/03/25 08:39:44;;;;;;;2.60;0.47;;;;;;;12.69;58.86;98592.91;5009612;28;20064;-49
2023/03/25 08:42:12;;;;;;;2.38;0.75;;;;;;;12.40;58.54;98585.22;5008708;28;20108;-48
2023/03/25 08:44:39;;;;;;;0.90;0.40;;;;;;;12.28;59.21;98602.06;5001970;28;20108;-49
2023/03/25 08:47:05;;;;;;;1.67;0.40;;;;;;;11.96;58.04;98609.13;4998678;28;20062;-49
2023/03/25 08:49:32;;;;;;;0.98;0.60;;;;;;;11.68;57.42;98612.53;5000932;28;20120;-48
2023/03/25 08:52:00;;;;;;;0.93;0.50;;;;;;;11.54;58.93;98620.75;5009586;28;20052;-50
2023/03/25 08:54:28;;;;;;;0.60;0.40;;;;;;;11.43;58.23;98626.25;5003724;28;20136;-51
2023/03/25 08:56:54;;;;;;;0.65;0.50;;;;;;;11.22;59.46;98620.81;5012964;28;20041;-49
2023/03/25 08:59:21;;;;;;;1.00;0.43;;;;;;;11.14;60.20;98626.19;5006513;28;20053;-48
2023/03/25 09:01:48;;;;;;;1.33;0.32;;;;;;;11.18;60.32;98626.97;5001309;28;20693;-49
2023/03/25 09:04:15;;;;;;;0.88;0.40;;;;;;;10.97;59.32;98621.47;5005539;28;20100;-48
2023/03/25 09:06:42;;;;;;;1.58;0.47;;;;;;;11.05;59.56;98631.66;5005912;28;20046;-48
2023/03/25 09:09:28;;;;;;;1.77;0.50;;;;;;;11.12;60.28;98638.34;5007233;28;20053;-47
2023/03/25 09:11:55;;;;;;;2.13;0.32;;;;;;;11.34;60.56;98637.72;5008918;28;20134;-48
2023/03/25 09:14:22;;;;;;;3.42;0.40;;;;;;;11.51;60.13;98639.84;5006292;28;20104;-51
2023/03/25 09:16:48;;;;;;;0.80;0.63;;;;;;;11.57;59.39;98644.00;5003886;28;20050;-49
2023/03/25 09:19:15;;;;;;;0.93;0.50;;;;;;;11.51;58.38;98645.03;5007021;28;20143;-48
2023/03/25 09:21:42;;;;;;;5.22;0.60;;;;;;;11.55;60.12;98659.59;5005818;28;20212;-49
2023/03/25 09:24:09;;;;;;;1.10;0.73;;;;;;;11.53;59.23;98658.81;5005821;28;20054;-49
2023/03/25 09:26:36;;;;;;;2.03;0.88;;;;;;;11.49;60.32;98672.75;5006654;28;20129;-49
2023/03/25 09:29:02;;;;;;;1.13;0.45;;;;;;;11.50;59.51;98674.44;5007333;28;20057;-48
2023/03/25 09:31:29;;;;;;;1.75;0.60;;;;;;;11.50;59.60;98676.19;5002391;28;20116;-48
2023/03/25 09:33:56;;;;;;;0.82;0.35;;;;;;;11.43;60.14;98678.09;5000862;28;20650;-47
2023/03/25 09:36:22;;;;;;;1.67;0.40;;;;;;;11.49;60.20;98692.63;5003421;28;20497;-48
2023/03/25 09:38:49;;;;;;;1.17;0.98;;;;;;;11.50;59.91;98690.00;5002879;28;20430;-48
2023/03/25 09:44:22;;;;;;;1.52;0.47;;;;;;;11.40;59.76;98693.75;5047870;28;21145;-49
2023/03/25 09:46:49;;;;;;;4.57;0.63;;;;;;;11.51;59.43;98702.06;5013814;28;20504;-49
2023/03/25 09:49:22;;;;;;;1.63;0.40;;;;;;;11.79;59.31;98693.47;5023106;28;20131;-48
2023/03/25 09:51:52;;;;;;;3.10;0.28;;;;;;;11.86;59.14;98711.47;5021757;28;20052;-51
2023/03/25 09:54:29;;;;;;;2.63;0.65;;;;;;;11.76;59.64;98716.91;5019147;28;20049;-53
2023/03/25 09:57:01;;;;;;;4.07;0.50;;;;;;;11.72;58.31;98725.69;5017299;28;20049;-49
2023/03/25 09:59:43;;;;;;;0.85;0.35;;;;;;;11.61;58.78;98719.94;5019349;28;20065;-49
2023/03/25 10:08:26;;;;;;;1.23;1.20;;;;;;;11.30;59.78;98734.63;5049829;27;20755;-50
2023/03/25 10:24:26;;;;;;;2.80;1.73;;;;;;;12.56;56.29;98759.56;5060543;27;20414;-49
2023/03/25 10:27:00;;;;;;;2.40;2.20;;;;;;;12.93;58.46;98767.91;5038551;28;20136;-48
2023/03/25 10:29:34;;;;;;;3.05;2.47;;;;;;;13.31;56.56;98767.50;5042684;28;20184;-53
2023/03/25 10:32:06;;;;;;;4.38;1.98;;;;;;;13.62;55.75;98769.03;5045208;28;20303;-50
2023/03/25 10:34:39;;;;;;;1.65;1.55;;;;;;;13.61;53.73;98758.69;5034695;28;20049;-47
2023/03/25 10:37:11;;;;;;;3.25;3.03;;;;;;;13.66;53.53;98771.53;5044669;28;20086;-49
2023/03/25 10:39:43;;;;;;;1.80;1.67;;;;;;;13.40;52.73;98773.31;5043824;28;20055;-48
2023/03/25 10:44:53;;;;;;;0.93;0.43;;;;;;;13.33;53.96;98785.66;5025006;28;20402;-48
2023/03/25 10:47:25;;;;;;;1.30;0.68;;;;;;;13.49;54.02;98791.22;5013265;28;20100;-48
2023/03/25 10:49:53;;;;;;;3.17;0.95;;;;;;;13.86;54.64;98794.25;5016234;28;20049;-50
2023/03/25 10:52:20;;;;;;;1.02;0.60;;;;;;;13.96;52.28;98794.75;5015252;28;20136;-49
2023/03/25 10:54:52;;;;;;;1.80;0.35;;;;;;;13.78;52.69;98802.31;5000415;28;20140;-49
2023/03/25 10:57:29;;;;;;;1.17;0.63;;;;;;;13.75;52.56;98808.50;5009111;28;20418;-52
2023/03/25 11:02:41;;;;;;;2.47;0.98;;;;;;;13.92;52.76;98819.22;5043071;27;20399;-48
2023/03/25 11:05:08;;;;;;;1.58;0.52;;;;;;;13.71;53.12;98842.50;5021609;28;20042;-49
2023/03/25 11:07:38;;;;;;;2.30;1.70;;;;;;;13.77;53.56;98831.03;5021960;28;20132;-48
2023/03/25 11:12:51;;;;;;;1.08;0.95;;;;;;;13.74;52.61;98838.03;5027703;27;20394;-52
2023/03/25 11:15:35;;;;;;;1.75;0.45;;;;;;;13.57;51.93;98843.81;5022296;28;20107;-48
2023/03/25 11:20:46;;;;;;;0.50;0.45;;;;;;;13.66;54.00;98860.00;5033754;27;20398;-51
2023/03/25 11:23:34;;;;;;;1.40;0.50;;;;;;;13.75;53.58;98865.75;5002778;28;20096;-49
2023/03/25 11:26:05;;;;;;;2.10;0.50;;;;;;;13.74;53.07;98871.00;4996422;28;20264;-50
2023/03/25 11:28:38;;;;;;;0.57;0.30;;;;;;;13.81;53.74;98876.84;4994449;28;20164;-50
2023/03/25 11:33:44;;;;;;;0.70;0.70;;;;;;;13.80;53.92;98873.41;5034791;28;20409;-50
2023/03/25 11:36:34;;;;;;;1.40;0.35;;;;;;;13.73;53.71;98882.31;5017863;28;20049;-49
2023/03/25 11:39:10;;;;;;;3.63;0.73;;;;;;;13.73;52.98;98877.09;5013106;28;20489;-50
2023/03/25 11:41:37;;;;;;;3.05;1.42;;;;;;;13.72;53.76;98885.81;5021359;28;20405;-50
2023/03/25 11:44:04;;;;;;;1.58;0.40;;;;;;;13.79;54.24;98883.84;5038295;28;20726;-48
2023/03/25 11:46:33;;;;;;;0.50;0.43;;;;;;;13.93;54.02;98878.16;5036127;28;20064;-49
2023/03/25 11:49:10;;;;;;;3.35;0.80;;;;;;;14.10;53.02;98878.41;5039610;28;20509;-49
2023/03/25 11:51:38;;;;;;;1.27;0.35;;;;;;;14.10;52.23;98881.03;5039055;28;20064;-49
2023/03/25 11:54:10;;;;;;;0.75;0.63;;;;;;;14.08;52.32;98875.00;5030966;28;20148;-50
2023/03/25 11:56:40;;;;;;;1.00;0.85;;;;;;;14.11;52.27;98880.09;5039440;28;20132;-49
2023/03/25 11:59:18;;;;;;;1.20;0.55;;;;;;;14.25;53.28;98886.56;5045311;28;20107;-50
2023/03/25 12:01:47;;;;;;;2.28;0.82;;;;;;;14.33;52.65;98881.94;5028355;28;20492;-52
2023/03/25 12:04:23;;;;;;;2.88;0.57;;;;;;;14.39;51.66;98876.47;5032272;28;20136;-49
2023/03/25 12:06:52;;;;;;;;;;;;;;;14.36;52.81;98887.00;5034181;28;20049;-49
2023/03/25 12:09:18;;;;;;;1.77;0.85;;;;;;;14.51;53.00;98895.16;5032886;28;19963;-48
2023/03/25 12:20:13;;;;;;;1.10;0.82;;;;;;;14.83;51.58;98910.53;5032089;28;20445;-49
2023/03/25 12:23:02;;;;;;;2.22;0.30;;;;;;;14.67;50.52;98899.78;5003411;28;20120;-52
2023/03/25 12:37:10;;;;;;;6.70;2.50;;;;;;;15.40;51.81;98910.84;5020473;27;20406;-50
2023/03/25 12:45:16;;;;;;;1.13;0.73;;;;;;;15.62;51.81;98903.91;5020777;27;20407;-48
2023/03/25 12:50:51;;;;;;;1.88;1.02;;;;;;;15.73;52.02;98911.28;5020062;28;20391;-50
2023/03/25 12:59:15;;;;;;;1.23;0.22;;;;;;;15.83;51.53;98907.38;5046818;28;20398;-49
2023/03/25 13:07:11;;;;;;;1.63;0.40;;;;;;;15.97;50.47;98914.63;5056423;28;20412;-51
2023/03/25 13:12:31;;;;;;;0.90;0.30;;;;;;;15.98;51.52;98929.41;5020060;27;20405;-49
2023/03/25 13:17:50;;;;;;;1.00;0.55;;;;;;;15.89;50.94;98917.56;5072215;27;20403;-47
2023/03/25 13:20:19;;;;;;;2.10;0.60;;;;;;;15.81;51.40;98930.09;5052712;28;20049;-50
2023/03/25 13:22:51;;;;;;;3.10;0.73;;;;;;;15.77;50.96;98931.97;5042868;28;20061;-48
2023/03/25 13:25:25;;;;;;;0.63;0.57;;;;;;;15.55;51.16;98932.03;5055827;28;20049;-49
2023/03/25 13:27:56;;;;;;;1.63;0.40;;;;;;;15.40;52.19;98950.00;5029688;28;20045;-48
2023/03/25 13:30:36;;;;;;;1.77;0.50;;;;;;;15.55;52.09;98932.03;5050361;28;20072;-47
2023/03/25 13:33:10;;;;;;;0.70;0.35;;;;;;;15.64;51.88;98934.25;5041670;28;20136;-50
2023/03/25 13:35:46;;;;;;;0.50;0.50;;;;;;;15.44;51.23;98935.09;5038875;28;20045;-52
2023/03/25 13:38:25;;;;;;;0.55;0.45;;;;;;;15.52;51.65;98945.19;5032824;28;20052;-49
2023/03/25 13:41:06;;;;;;;0.88;0.47;;;;;;;15.35;50.24;98933.69;5037165;28;20049;-52
2023/03/25 13:43:56;;;;;;;1.02;0.43;;;;;;;15.12;50.46;98942.41;5036788;28;20144;-52